createdAt,value
2022-12-13T00:01:22.776Z,101009.75
2022-12-13T00:03:50.765Z,100980.84
2022-12-13T00:06:18.541Z,100979.38
2022-12-13T00:08:46.254Z,100982.72
2022-12-13T00:11:15.168Z,100988.44
2022-12-13T00:13:44.318Z,101010.84
2022-12-13T00:16:15.682Z,101012.09
2022-12-13T00:18:43.780Z,101008.75
2022-12-13T00:21:14.896Z,101015.75
2022-12-13T00:23:43.012Z,101004.91
2022-12-13T00:26:12.809Z,100997.25
2022-12-13T00:28:41.109Z,100957.13
2022-12-13T00:31:51.619Z,100948.38
2022-12-13T00:33:59.336Z,100948.16
2022-12-13T00:36:27.251Z,100907.28
2022-12-13T00:39:01.682Z,100910.34
2022-12-13T00:41:31.655Z,100900.66
2022-12-13T00:43:59.964Z,100900.75
2022-12-13T00:46:29.115Z,100899.84
2022-12-13T00:49:00.561Z,100884.59
2022-12-13T00:51:29.884Z,100904.00
2022-12-13T00:53:57.831Z,100877.41
2022-12-13T00:56:29.246Z,100865.31
2022-12-13T00:58:57.805Z,100871.84
2022-12-13T01:01:27.100Z,100879.28
2022-12-13T01:03:56.590Z,100879.72
2022-12-13T01:06:28.886Z,100863.44
2022-12-13T01:08:56.632Z,100891.00
2022-12-13T01:11:24.648Z,100880.88
2022-12-13T01:13:52.405Z,100878.97
2022-12-13T01:16:20.154Z,100880.56
2022-12-13T01:18:48.039Z,100890.91
2022-12-13T01:21:18.509Z,100865.31
2022-12-13T01:23:47.604Z,100885.00
2022-12-13T01:26:17.810Z,100902.25
2022-12-13T01:28:45.756Z,100902.34
2022-12-13T01:31:16.026Z,100893.28
2022-12-13T01:33:44.293Z,100884.56
2022-12-13T01:36:14.540Z,100888.38
2022-12-13T01:38:42.295Z,100911.81
2022-12-13T01:41:17.850Z,100913.31
2022-12-13T01:44:03.324Z,100943.84
2022-12-13T01:46:32.922Z,100957.63
2022-12-13T01:49:19.310Z,100981.44
2022-12-13T01:51:53.613Z,100997.56
2022-12-13T01:54:24.236Z,101008.72
2022-12-13T01:57:05.882Z,101029.66
2022-12-13T01:59:35.200Z,101060.50
2022-12-13T02:02:03.202Z,101048.47
2022-12-13T02:04:37.429Z,101044.63
2022-12-13T02:07:14.156Z,101040.75
2022-12-13T02:09:57.030Z,101027.38
2022-12-13T02:12:30.214Z,101047.88
2022-12-13T02:15:00.606Z,101064.97
2022-12-13T02:17:53.557Z,101061.69
2022-12-13T02:20:41.329Z,101062.66
2022-12-13T02:23:31.840Z,101074.88
2022-12-13T02:26:30.276Z,101089.88
2022-12-13T02:29:14.374Z,101100.53
2022-12-13T02:32:06.830Z,101098.59
2022-12-13T02:34:40.550Z,101101.03
2022-12-13T02:37:18.096Z,101095.28
2022-12-13T02:39:53.085Z,101098.03
2022-12-13T02:42:25.126Z,101091.72
2022-12-13T02:44:59.924Z,101101.47
2022-12-13T02:47:31.899Z,101110.19
2022-12-13T02:50:03.621Z,101110.03
2022-12-13T02:52:33.597Z,101109.78
2022-12-13T02:55:01.374Z,101117.41
2022-12-13T02:57:31.316Z,101118.28
2022-12-13T03:00:01.819Z,101131.25
2022-12-13T03:02:37.608Z,101124.00
2022-12-13T03:05:32.968Z,101128.97
2022-12-13T03:08:13.051Z,101125.56
2022-12-13T03:10:48.065Z,101127.59
2022-12-13T03:13:38.854Z,101128.22
2022-12-13T03:16:13.308Z,101118.66
2022-12-13T03:18:46.200Z,101119.47
2022-12-13T03:21:14.386Z,101114.25
2022-12-13T03:23:42.132Z,101131.59
2022-12-13T03:26:12.264Z,101121.72
2022-12-13T03:28:40.934Z,101124.06
2022-12-13T03:31:10.365Z,101116.63
2022-12-13T03:33:38.807Z,101120.41
2022-12-13T03:36:09.010Z,101107.38
2022-12-13T03:38:38.676Z,101114.09
2022-12-13T03:41:10.276Z,101110.53
2022-12-13T03:43:38.930Z,101110.47
2022-12-13T03:46:07.183Z,101102.22
2022-12-13T03:48:35.116Z,101106.03
2022-12-13T03:51:03.771Z,101101.66
2022-12-13T03:53:34.609Z,101093.53
2022-12-13T03:56:04.199Z,101089.81
2022-12-13T03:58:36.190Z,101094.75
2022-12-13T04:01:07.050Z,101095.19
2022-12-13T04:03:35.511Z,101089.22
2022-12-13T04:06:03.266Z,101094.34
2022-12-13T04:08:33.217Z,101090.66
2022-12-13T04:11:20.969Z,101084.13
2022-12-13T04:13:47.709Z,101088.09
2022-12-13T04:16:15.508Z,101088.13
2022-12-13T04:18:43.511Z,101097.50
2022-12-13T04:21:12.409Z,101102.28
2022-12-13T04:23:41.476Z,101097.50
2022-12-13T04:26:09.200Z,101094.53
2022-12-13T04:28:37.177Z,101095.31
2022-12-13T04:31:06.004Z,101085.09
2022-12-13T04:33:33.825Z,101081.06
2022-12-13T04:36:01.618Z,101087.25
2022-12-13T04:38:29.343Z,101079.81
2022-12-13T04:41:08.162Z,101088.44
2022-12-13T04:43:35.982Z,101095.25
2022-12-13T04:46:03.800Z,101093.63
2022-12-13T04:48:34.766Z,101090.81
2022-12-13T04:51:04.701Z,101092.63
2022-12-13T04:53:32.455Z,101096.22
2022-12-13T04:56:00.384Z,101092.91
2022-12-13T04:58:30.988Z,101087.75
2022-12-13T05:00:58.734Z,101086.91
2022-12-13T05:03:30.302Z,101086.69
2022-12-13T05:05:58.012Z,101086.97
2022-12-13T05:08:25.746Z,101083.59
2022-12-13T05:10:55.586Z,101080.06
2022-12-13T05:13:23.278Z,101082.03
2022-12-13T05:15:57.623Z,101077.22
2022-12-13T05:18:26.100Z,101073.66
2022-12-13T05:20:54.262Z,101067.09
2022-12-13T05:23:23.718Z,101062.56
2022-12-13T05:25:51.787Z,101063.72
2022-12-13T05:28:28.358Z,101068.28
2022-12-13T05:31:00.053Z,101063.94
2022-12-13T05:33:28.888Z,101076.56
2022-12-13T05:36:01.334Z,101063.56
2022-12-13T05:38:31.933Z,101065.56
2022-12-13T05:40:59.876Z,101065.97
2022-12-13T05:43:42.003Z,101072.44
2022-12-13T05:46:13.233Z,101070.38
2022-12-13T05:48:41.148Z,101072.22
2022-12-13T05:51:11.437Z,101072.88
2022-12-13T05:53:41.077Z,101069.59
2022-12-13T05:56:10.227Z,101069.59
2022-12-13T05:58:39.579Z,101074.75
2022-12-13T06:01:09.576Z,101081.16
2022-12-13T06:03:38.976Z,101075.53
2022-12-13T06:06:09.611Z,101066.84
2022-12-13T06:08:37.432Z,101074.38
2022-12-13T06:11:09.964Z,101070.53
2022-12-13T06:13:42.762Z,101070.84
2022-12-13T06:16:23.400Z,101072.91
2022-12-13T06:19:01.364Z,101069.44
2022-12-13T06:21:41.365Z,101067.34
2022-12-13T06:24:14.975Z,101064.25
2022-12-13T06:26:42.848Z,101065.56
2022-12-13T06:29:13.207Z,101071.28
2022-12-13T06:32:01.947Z,101074.63
2022-12-13T06:34:33.889Z,101063.47
2022-12-13T06:37:02.563Z,101069.63
2022-12-13T06:39:32.870Z,101079.94
2022-12-13T06:42:01.451Z,101080.53
2022-12-13T06:44:29.313Z,101081.88
2022-12-13T06:47:10.467Z,101088.16
2022-12-13T06:49:43.689Z,101086.56
2022-12-13T06:52:13.349Z,101075.75
2022-12-13T06:54:41.626Z,101078.94
2022-12-13T06:57:09.675Z,101079.69
2022-12-13T06:59:37.642Z,101072.13
2022-12-13T07:02:05.812Z,101074.44
2022-12-13T07:04:33.895Z,101068.69
2022-12-13T07:07:03.411Z,101075.47
2022-12-13T07:09:31.801Z,101075.53
2022-12-13T07:11:59.582Z,101071.75
2022-12-13T07:14:27.642Z,101072.72
2022-12-13T07:17:02.876Z,101064.66
2022-12-13T07:19:34.879Z,101064.50
2022-12-13T07:22:11.363Z,101077.66
2022-12-13T07:24:39.067Z,101073.00
2022-12-13T07:27:06.814Z,101073.66
2022-12-13T07:29:34.559Z,101077.25
2022-12-13T07:32:02.377Z,101084.25
2022-12-13T07:34:30.638Z,101078.78
2022-12-13T07:36:58.575Z,101074.97
2022-12-13T07:39:27.905Z,101077.50
2022-12-13T07:41:56.688Z,101069.19
2022-12-13T07:44:25.130Z,101078.06
2022-12-13T07:46:52.977Z,101076.69
2022-12-13T07:49:20.967Z,101075.44
2022-12-13T07:51:49.074Z,101073.75
2022-12-13T07:54:16.935Z,101081.97
2022-12-13T07:56:46.140Z,101081.91
2022-12-13T07:59:14.317Z,101087.06
2022-12-13T08:01:42.115Z,101070.38
2022-12-13T08:04:10.278Z,101072.81
2022-12-13T08:06:39.051Z,101077.50
2022-12-13T08:09:07.358Z,101075.72
2022-12-13T08:11:35.076Z,101078.63
2022-12-13T08:14:04.274Z,101075.03
2022-12-13T08:16:32.030Z,101062.16
2022-12-13T08:19:01.905Z,101082.06
2022-12-13T08:24:23.699Z,101105.88
2022-12-13T08:26:51.490Z,101095.03
2022-12-13T08:29:22.993Z,101101.97
2022-12-13T08:32:02.992Z,101102.59
2022-12-13T08:34:31.729Z,101112.59
2022-12-13T08:37:01.514Z,101104.00
2022-12-13T08:39:30.233Z,101108.56
2022-12-13T08:42:16.415Z,101107.44
2022-12-13T08:44:48.517Z,101109.94
2022-12-13T08:47:22.523Z,101110.31
2022-12-13T08:49:53.527Z,101110.59
2022-12-13T08:52:22.505Z,101087.91
2022-12-13T08:54:50.287Z,101066.41
2022-12-13T08:57:18.160Z,101074.47
2022-12-13T08:59:47.293Z,101084.66
2022-12-13T09:02:15.679Z,101076.53
2022-12-13T09:04:43.847Z,101069.72
2022-12-13T09:07:11.570Z,101070.34
2022-12-13T09:09:39.311Z,101034.03
2022-12-13T09:12:10.342Z,101026.13
2022-12-13T09:14:45.201Z,101027.66
2022-12-13T09:17:24.992Z,101039.09
2022-12-13T09:19:58.021Z,101029.78
2022-12-13T09:22:33.775Z,101035.25
2022-12-13T09:25:02.397Z,101024.56
2022-12-13T09:27:39.841Z,101024.06
2022-12-13T09:30:12.941Z,101045.81
2022-12-13T09:32:43.561Z,101027.31
2022-12-13T09:35:11.285Z,101027.31
2022-12-13T09:37:45.593Z,101015.41
2022-12-13T09:40:26.290Z,100991.00
2022-12-13T09:43:21.861Z,101023.38
2022-12-13T09:45:48.007Z,101022.91
2022-12-13T09:48:22.977Z,101037.72
2022-12-13T09:51:15.977Z,101036.91
2022-12-13T09:53:41.475Z,101028.63
2022-12-13T09:56:13.422Z,101028.63
2022-12-13T09:58:41.158Z,101022.16
2022-12-13T10:01:09.020Z,101002.81
2022-12-13T10:03:38.227Z,100981.19
2022-12-13T10:06:22.913Z,100937.59
2022-12-13T10:08:57.293Z,100932.31
2022-12-13T10:11:31.756Z,100924.44
2022-12-13T10:14:04.313Z,100892.78
2022-12-13T10:16:43.752Z,100861.72
2022-12-13T10:19:29.551Z,100876.84
2022-12-13T10:22:01.250Z,100899.09
2022-12-13T10:24:37.004Z,100891.44
2022-12-13T10:27:13.737Z,100898.53
2022-12-13T10:30:01.275Z,100906.28
2022-12-13T10:32:29.089Z,100898.75
2022-12-13T10:34:58.285Z,100905.00
2022-12-13T10:37:29.483Z,100905.34
2022-12-13T10:39:57.495Z,100906.59
2022-12-13T10:42:32.150Z,100890.25
2022-12-13T10:45:14.753Z,100889.16
2022-12-13T10:47:45.244Z,100887.47
2022-12-13T10:50:25.705Z,100877.69
2022-12-13T10:52:54.919Z,100867.97
2022-12-13T10:55:29.759Z,100867.19
2022-12-13T10:58:00.853Z,100891.47
2022-12-13T11:00:41.447Z,100842.78
2022-12-13T11:03:30.013Z,100864.13
2022-12-13T11:06:06.534Z,100852.19
2022-12-13T11:08:34.281Z,100862.97
2022-12-13T11:11:03.594Z,100866.09
2022-12-13T11:13:38.423Z,100875.19
2022-12-13T11:16:22.397Z,100887.25
2022-12-13T11:18:54.433Z,100891.09
2022-12-13T11:21:27.661Z,100892.19
2022-12-13T11:23:56.770Z,100890.09
2022-12-13T11:26:32.034Z,100889.94
2022-12-13T11:29:21.788Z,100880.66
2022-12-13T11:31:59.995Z,100899.00
2022-12-13T11:34:36.281Z,100945.69
2022-12-13T11:37:16.920Z,100940.09
2022-12-13T11:39:51.020Z,100937.16
2022-12-13T11:42:27.099Z,100940.50
2022-12-13T11:45:03.957Z,100943.84
2022-12-13T11:47:38.403Z,100953.66
2022-12-13T11:50:21.837Z,100954.44
2022-12-13T11:53:21.410Z,100949.38
2022-12-13T11:55:56.339Z,100952.53
2022-12-13T12:01:18.877Z,100956.38
2022-12-13T12:03:51.217Z,100965.25
2022-12-13T12:06:23.389Z,100979.56
2022-12-13T12:08:58.150Z,100976.03
2022-12-13T12:11:32.736Z,100994.88
2022-12-13T12:14:05.906Z,101000.03
2022-12-13T12:16:40.644Z,100994.97
2022-12-13T12:19:14.582Z,101003.78
2022-12-13T12:22:14.637Z,101003.53
2022-12-13T12:24:54.797Z,100992.50
2022-12-13T12:27:32.010Z,100987.91
2022-12-13T12:30:23.536Z,100987.50
2022-12-13T12:33:00.510Z,100995.16
2022-12-13T12:35:44.660Z,100998.03
2022-12-13T12:38:39.498Z,100999.28
2022-12-13T12:41:29.265Z,101006.63
2022-12-13T12:44:06.670Z,101002.38
2022-12-13T12:47:08.663Z,101005.78
2022-12-13T12:50:12.015Z,101008.53
2022-12-13T12:52:53.540Z,100996.66
2022-12-13T12:55:31.725Z,100998.03
2022-12-13T12:58:10.135Z,100994.97
2022-12-13T13:00:52.244Z,100982.91
2022-12-13T13:03:23.398Z,100977.84
2022-12-13T13:06:01.931Z,100983.09
2022-12-13T13:08:35.339Z,100975.44
2022-12-13T13:11:24.803Z,100975.88
2022-12-13T13:14:08.192Z,100962.75
2022-12-13T13:16:39.014Z,100968.91
2022-12-13T13:19:27.193Z,100966.06
2022-12-13T13:22:01.545Z,100974.22
2022-12-13T13:24:31.489Z,100970.75
2022-12-13T13:27:00.800Z,100963.16
2022-12-13T13:29:35.579Z,100974.06
2022-12-13T13:32:29.088Z,100964.69
2022-12-13T13:35:51.009Z,100961.81
2022-12-13T13:38:50.387Z,100969.13
2022-12-13T13:41:55.019Z,100976.97
2022-12-13T13:44:54.642Z,100976.44
2022-12-13T13:47:38.922Z,100987.91
2022-12-13T13:50:48.962Z,100992.88
2022-12-13T13:54:10.473Z,101009.78
2022-12-13T13:57:33.202Z,101013.03
2022-12-13T14:00:18.361Z,101016.69
2022-12-13T14:03:33.293Z,101009.16
2022-12-13T14:06:45.273Z,100993.69
2022-12-13T14:10:01.225Z,101014.84
2022-12-13T14:13:05.023Z,101032.78
2022-12-13T14:16:21.274Z,101041.25
2022-12-13T14:19:37.884Z,101051.50
2022-12-13T14:22:14.697Z,101055.59
2022-12-13T14:24:52.751Z,101042.03
2022-12-13T14:27:34.970Z,101043.72
2022-12-13T14:30:17.980Z,101047.72
2022-12-13T14:32:53.622Z,101038.00
2022-12-13T14:35:27.346Z,101037.56
2022-12-13T14:38:00.866Z,101038.13
2022-12-13T14:40:31.664Z,101033.25
2022-12-13T14:42:59.968Z,101027.44
2022-12-13T14:45:31.683Z,101028.78
2022-12-13T14:48:02.285Z,101020.81
2022-12-13T14:50:34.237Z,101012.47
2022-12-13T14:53:03.251Z,100992.16
2022-12-13T14:55:33.345Z,100979.03
2022-12-13T14:58:03.763Z,100986.00
2022-12-13T15:00:36.545Z,100977.22
2022-12-13T15:03:05.468Z,100969.72
2022-12-13T15:05:38.527Z,100962.00
2022-12-13T15:08:11.026Z,100937.56
2022-12-13T15:10:41.862Z,100945.34
2022-12-13T15:13:29.363Z,100944.69
2022-12-13T15:16:01.825Z,100904.13
2022-12-13T15:18:38.473Z,100873.03
2022-12-13T15:21:20.431Z,100849.09
2022-12-13T15:23:49.447Z,100803.88
2022-12-13T15:26:28.045Z,100805.00
2022-12-13T15:28:59.727Z,100786.75
2022-12-13T15:31:30.109Z,100763.81
2022-12-13T15:34:28.850Z,100770.81
2022-12-13T15:37:01.122Z,100730.16
2022-12-13T15:39:31.053Z,100734.47
2022-12-13T15:41:59.633Z,100752.94
2022-12-13T15:44:29.634Z,100756.44
2022-12-13T15:47:04.080Z,100769.28
2022-12-13T15:49:36.344Z,100781.94
2022-12-13T15:52:08.187Z,100800.44
2022-12-13T15:54:35.868Z,100801.69
2022-12-13T15:57:14.356Z,100796.81
2022-12-13T15:59:43.920Z,100790.53
2022-12-13T16:02:20.222Z,100792.78
2022-12-13T16:04:47.990Z,100793.75
2022-12-13T16:07:25.999Z,100761.63
2022-12-13T16:09:56.480Z,100783.06
2022-12-13T16:12:27.024Z,100743.75
2022-12-13T16:15:13.933Z,100723.88
2022-12-13T16:18:08.040Z,100692.25
2022-12-13T16:20:36.103Z,100679.47
2022-12-13T16:23:08.925Z,100654.72
2022-12-13T16:25:37.458Z,100639.81
2022-12-13T16:28:05.567Z,100639.88
2022-12-13T16:30:59.682Z,100630.25
2022-12-13T16:33:28.786Z,100622.53
2022-12-13T16:35:57.184Z,100610.78
2022-12-13T16:38:26.315Z,100608.00
2022-12-13T16:40:56.640Z,100608.00
2022-12-13T16:43:33.541Z,100594.78
2022-12-13T16:47:17.332Z,100591.19
2022-12-13T16:48:56.433Z,100584.03
2022-12-13T16:51:24.525Z,100587.13
2022-12-13T16:53:52.303Z,100578.97
2022-12-13T16:56:21.753Z,100584.06
2022-12-13T16:58:50.626Z,100581.75
2022-12-13T17:01:21.078Z,100579.69
2022-12-13T17:03:49.201Z,100585.97
2022-12-13T17:06:23.430Z,100576.56
2022-12-13T17:08:51.371Z,100574.44
2022-12-13T17:11:19.083Z,100576.22
2022-12-13T17:13:48.225Z,100575.72
2022-12-13T17:16:16.100Z,100579.78
2022-12-13T17:18:45.281Z,100577.78
2022-12-13T17:21:13.028Z,100578.75
2022-12-13T17:23:42.120Z,100578.81
2022-12-13T17:26:11.833Z,100584.28
2022-12-13T17:28:39.823Z,100580.84
2022-12-13T17:31:09.027Z,100578.72
2022-12-13T17:33:37.278Z,100584.41
2022-12-13T17:36:06.558Z,100579.56
2022-12-13T17:38:34.731Z,100591.09
2022-12-13T17:41:04.315Z,100585.63
2022-12-13T17:43:35.227Z,100595.31
2022-12-13T17:46:04.980Z,100586.47
2022-12-13T17:48:39.582Z,100586.88
2022-12-13T17:51:08.753Z,100574.75
2022-12-13T17:53:36.840Z,100571.25
2022-12-13T17:56:08.213Z,100559.50
2022-12-13T17:58:36.490Z,100570.47
2022-12-13T18:01:12.396Z,100557.44
2022-12-13T18:03:40.200Z,100578.44
2022-12-13T18:06:08.413Z,100580.59
2022-12-13T18:08:36.885Z,100605.34
2022-12-13T18:13:55.540Z,100614.16
2022-12-13T18:16:28.865Z,100624.16
2022-12-13T18:19:02.039Z,100635.50
2022-12-13T18:21:29.845Z,100645.00
2022-12-13T18:23:57.557Z,100662.44
2022-12-13T18:26:26.666Z,100644.69
2022-12-13T18:28:54.373Z,100643.81
2022-12-13T18:31:24.695Z,100663.38
2022-12-13T18:33:54.452Z,100660.78
2022-12-13T18:36:25.237Z,100638.66
2022-12-13T18:38:53.372Z,100635.00
2022-12-13T18:41:22.552Z,100610.81
2022-12-13T18:43:56.314Z,100595.28
2022-12-13T18:46:28.288Z,100576.47
2022-12-13T18:48:56.712Z,100604.09
2022-12-13T18:51:25.184Z,100592.13
2022-12-13T18:53:53.655Z,100589.88
2022-12-13T18:56:21.510Z,100572.00
2022-12-13T18:58:52.111Z,100571.94
2022-12-13T19:01:20.858Z,100570.66
2022-12-13T19:03:49.329Z,100567.00
2022-12-13T19:06:19.338Z,100609.19
2022-12-13T19:08:48.865Z,100592.63
2022-12-13T19:11:17.016Z,100577.81
2022-12-13T19:13:44.757Z,100584.69
2022-12-13T19:16:18.424Z,100593.13
2022-12-13T19:18:46.402Z,100618.81
2022-12-13T19:21:16.317Z,100627.25
2022-12-13T19:23:47.313Z,100620.50
2022-12-13T19:26:18.078Z,100607.94
2022-12-13T19:28:46.642Z,100597.13
2022-12-13T19:31:16.500Z,100608.72
2022-12-13T19:33:44.933Z,100600.56
2022-12-13T19:36:12.673Z,100591.38
2022-12-13T19:38:41.831Z,100591.78
2022-12-13T19:41:10.817Z,100603.38
2022-12-13T19:43:38.924Z,100582.53
2022-12-13T19:46:07.302Z,100584.69
2022-12-13T19:48:37.633Z,100606.38
2022-12-13T19:51:07.540Z,100579.22
2022-12-13T19:53:36.675Z,100591.72
2022-12-13T19:56:09.701Z,100578.09
2022-12-13T19:58:37.789Z,100572.81
2022-12-13T20:01:07.046Z,100580.97
2022-12-13T20:03:37.725Z,100573.63
2022-12-13T20:06:07.247Z,100573.03
2022-12-13T20:08:35.100Z,100561.19
2022-12-13T20:11:05.621Z,100557.50
2022-12-13T20:13:34.120Z,100530.16
2022-12-13T20:16:02.258Z,100549.13
2022-12-13T20:18:30.033Z,100544.78
2022-12-13T20:21:12.850Z,100526.47
2022-12-13T20:23:42.173Z,100528.06
2022-12-13T20:26:20.236Z,100511.59
2022-12-13T20:28:48.514Z,100517.47
2022-12-13T20:31:18.596Z,100524.16
2022-12-13T20:33:48.646Z,100502.66
2022-12-13T20:36:28.892Z,100527.31
2022-12-13T20:38:58.322Z,100541.84
2022-12-13T20:41:28.111Z,100548.28
2022-12-13T20:43:57.422Z,100536.84
2022-12-13T20:46:26.403Z,100526.94
2022-12-13T20:48:55.201Z,100533.75
2022-12-13T20:51:26.065Z,100553.03
2022-12-13T20:53:55.155Z,100551.13
2022-12-13T20:56:24.035Z,100548.75
2022-12-13T20:58:52.340Z,100559.75
2022-12-13T21:01:22.521Z,100573.13
2022-12-13T21:03:50.784Z,100573.28
2022-12-13T21:06:18.472Z,100586.09
2022-12-13T21:08:53.903Z,100549.53
2022-12-13T21:11:26.125Z,100552.28
2022-12-13T21:14:05.374Z,100544.97
2022-12-13T21:16:39.313Z,100522.59
2022-12-13T21:19:08.594Z,100494.72
2022-12-13T21:21:36.879Z,100489.53
2022-12-13T21:24:06.963Z,100498.19
2022-12-13T21:26:36.264Z,100484.25
2022-12-13T21:29:07.268Z,100483.63
2022-12-13T21:31:36.250Z,100502.41
2022-12-13T21:34:05.315Z,100492.13
2022-12-13T21:36:34.604Z,100504.50
2022-12-13T21:39:04.651Z,100489.28
2022-12-13T21:41:34.040Z,100486.34
2022-12-13T21:44:01.729Z,100507.38
2022-12-13T21:46:55.169Z,100480.84
2022-12-13T21:49:18.389Z,100468.50
2022-12-13T21:51:48.145Z,100476.94
2022-12-13T21:54:16.624Z,100475.81
2022-12-13T21:57:02.964Z,100468.25
2022-12-13T21:59:30.921Z,100468.75
2022-12-13T22:02:12.977Z,100473.34
2022-12-13T22:04:43.398Z,100476.97
2022-12-13T22:07:12.610Z,100468.19
2022-12-13T22:09:40.457Z,100461.22
2022-12-13T22:12:10.924Z,100454.88
2022-12-13T22:14:38.895Z,100443.09
2022-12-13T22:17:06.660Z,100450.38
2022-12-13T22:19:34.459Z,100452.97
2022-12-13T22:22:02.167Z,100441.19
2022-12-13T22:24:29.943Z,100445.94
2022-12-13T22:26:57.646Z,100450.09
2022-12-13T22:29:26.978Z,100439.97
2022-12-13T22:31:54.977Z,100449.69
2022-12-13T22:34:22.813Z,100446.75
2022-12-13T22:36:50.615Z,100432.66
2022-12-13T22:39:20.391Z,100425.41
2022-12-13T22:41:49.441Z,100427.25
2022-12-13T22:44:18.898Z,100424.88
2022-12-13T22:46:48.323Z,100425.94
2022-12-13T22:49:16.284Z,100410.28
2022-12-13T22:51:44.280Z,100409.75
2022-12-13T22:54:12.188Z,100410.66
2022-12-13T22:56:39.937Z,100412.84
2022-12-13T22:59:08.278Z,100408.78
2022-12-13T23:01:38.279Z,100410.66
2022-12-13T23:04:08.192Z,100403.06
2022-12-13T23:06:37.914Z,100399.47
2022-12-13T23:09:07.751Z,100395.78
2022-12-13T23:11:53.414Z,100404.16
2022-12-13T23:14:26.232Z,100386.59
2022-12-13T23:16:54.081Z,100389.88
2022-12-13T23:22:10.976Z,100390.66
2022-12-13T23:24:38.701Z,100402.16
2022-12-13T23:27:06.411Z,100395.97
2022-12-13T23:29:34.184Z,100410.00
2022-12-13T23:32:01.994Z,100417.22
2022-12-13T23:34:31.098Z,100407.09
2022-12-13T23:36:58.848Z,100402.31
2022-12-13T23:39:26.695Z,100400.63
2022-12-13T23:41:54.414Z,100398.41
2022-12-13T23:44:22.596Z,100407.03
2022-12-13T23:46:50.335Z,100417.41
2022-12-13T23:49:18.083Z,100416.44
2022-12-13T23:51:47.169Z,100416.94
2022-12-13T23:54:19.249Z,100419.53
2022-12-13T23:56:47.093Z,100414.06
2022-12-13T23:59:14.814Z,100399.41
